Time;durP1;ratioP1;P1;durP2;ratioP2;P2;SDS_P1;SDS_P2;PMS_P1;PMS_P2;Temp;Humidity;BMP_temperature;BMP_pressure;BME280_temperature;BME280_humidity;BME280_pressure;Samples;Min_cycle;Max_cycle;Signal;HPM_P1;HPM_P2
2021/09/28 00:01:36;;;;;;;8.13;7.43;;;;;;;19.59;73.25;96100.53;5037374;28;20194;-86
2021/09/28 00:04:03;;;;;;;8.02;7.25;;;;;;;19.54;73.65;96101.19;5037537;28;20248;-86
2021/09/28 00:06:31;;;;;;;9.15;7.40;;;;;;;19.49;73.52;96097.59;5037491;28;20225;-85
2021/09/28 00:08:58;;;;;;;8.07;7.38;;;;;;;19.50;73.59;96096.59;5037990;28;20692;-86
2021/09/28 00:11:24;;;;;;;8.38;7.57;;;;;;;19.42;74.08;96096.91;5037818;28;20205;-83
2021/09/28 00:13:51;;;;;;;8.77;7.82;;;;;;;19.30;75.41;96102.84;5037405;28;20205;-86
2021/09/28 00:16:17;;;;;;;8.52;7.82;;;;;;;19.29;75.41;96103.03;5038448;28;20226;-86
2021/09/28 00:18:44;;;;;;;9.23;7.60;;;;;;;19.27;75.56;96108.47;5038262;28;20202;-86
2021/09/28 00:21:11;;;;;;;8.55;7.60;;;;;;;19.29;75.24;96108.28;5037622;28;20197;-85
2021/09/28 00:23:38;;;;;;;8.68;7.93;;;;;;;19.28;74.89;96107.47;5037721;28;20256;-86
2021/09/28 00:26:05;;;;;;;8.45;7.65;;;;;;;19.24;74.79;96105.53;5037126;28;20225;-85
2021/09/28 00:28:31;;;;;;;8.90;8.00;;;;;;;19.13;75.74;96099.22;5037023;28;20236;-84
2021/09/28 00:30:58;;;;;;;9.00;8.10;;;;;;;19.11;75.48;96108.25;5037154;28;20205;-84
2021/09/28 00:33:25;;;;;;;8.02;7.32;;;;;;;19.09;76.05;96112.91;5037525;28;20228;-85
2021/09/28 00:35:51;;;;;;;8.45;7.72;;;;;;;19.06;76.37;96111.50;5037149;28;20279;-84
2021/09/28 00:38:18;;;;;;;8.63;7.85;;;;;;;18.97;76.34;96108.41;5051568;28;20233;-85
2021/09/28 00:40:46;;;;;;;8.35;7.53;;;;;;;18.96;76.45;96119.84;5057347;28;20201;-84
2021/09/28 00:43:12;;;;;;;8.68;7.88;;;;;;;18.92;77.10;96105.63;5057205;28;20288;-86
2021/09/28 00:45:39;;;;;;;8.60;7.80;;;;;;;18.97;76.36;96116.25;5057553;28;20626;-85
2021/09/28 00:48:05;;;;;;;8.63;7.82;;;;;;;18.97;76.51;96111.03;5057967;28;20210;-86
2021/09/28 00:50:32;;;;;;;8.60;7.80;;;;;;;18.93;76.48;96114.25;5072486;28;20197;-85
2021/09/28 00:52:59;;;;;;;9.27;8.18;;;;;;;18.89;76.95;96113.91;5064019;28;20202;-85
2021/09/28 00:55:28;;;;;;;8.00;7.35;;;;;;;18.89;76.69;96113.09;5057835;28;20580;-85
2021/09/28 00:57:57;;;;;;;9.43;8.35;;;;;;;18.91;76.69;96119.69;5058430;28;20225;-85
2021/09/28 01:00:24;;;;;;;7.60;7.00;;;;;;;18.95;76.81;96113.03;5058270;28;20206;-85
2021/09/28 01:02:52;;;;;;;8.43;7.68;;;;;;;18.92;76.57;96118.69;5057575;28;20209;-86
2021/09/28 01:05:18;;;;;;;8.77;7.90;;;;;;;18.87;77.27;96110.69;5057014;28;20198;-86
2021/09/28 01:07:44;;;;;;;8.35;7.60;;;;;;;18.91;76.92;96116.28;5056643;28;20229;-85
2021/09/28 01:10:11;;;;;;;8.85;8.05;;;;;;;18.90;77.09;96112.88;5055784;28;20243;-85
2021/09/28 01:12:38;;;;;;;8.30;7.50;;;;;;;18.91;76.79;96111.88;5055881;28;20201;-86
2021/09/28 01:15:07;;;;;;;9.90;8.00;;;;;;;18.94;76.79;96110.66;5055012;28;20225;-85
2021/09/28 01:17:33;;;;;;;8.68;7.85;;;;;;;18.95;77.13;96120.88;5055341;28;20237;-85
2021/09/28 01:20:00;;;;;;;8.70;8.00;;;;;;;18.92;77.07;96118.69;5060439;28;20208;-84
2021/09/28 01:22:28;;;;;;;8.80;8.05;;;;;;;18.98;76.98;96117.03;5067216;28;20190;-84
2021/09/28 01:24:54;;;;;;;8.68;7.88;;;;;;;18.99;76.87;96118.63;5055527;28;20201;-84
2021/09/28 01:27:21;;;;;;;8.50;7.50;;;;;;;19.02;76.65;96122.63;5055544;28;20221;-85
2021/09/28 01:29:47;;;;;;;7.72;7.13;;;;;;;19.03;76.76;96114.59;5055586;28;20212;-86
2021/09/28 01:32:14;;;;;;;8.50;7.80;;;;;;;19.02;76.79;96115.59;5055987;28;20209;-85
2021/09/28 01:34:40;;;;;;;8.40;7.55;;;;;;;19.03;76.43;96117.19;5055713;28;20226;-84
2021/09/28 01:37:07;;;;;;;7.97;7.35;;;;;;;19.07;75.87;96120.94;5048574;28;20723;-86
2021/09/28 01:39:35;;;;;;;8.38;7.47;;;;;;;19.07;76.05;96114.94;5035266;28;20228;-85
2021/09/28 01:42:01;;;;;;;7.72;7.13;;;;;;;19.09;76.35;96115.50;5035129;28;20202;-85
2021/09/28 01:44:28;;;;;;;7.97;7.20;;;;;;;19.11;75.80;96122.13;5034396;28;20205;-85
2021/09/28 01:46:55;;;;;;;7.38;6.75;;;;;;;19.15;75.30;96114.66;5034382;28;20226;-84
2021/09/28 01:49:21;;;;;;;8.25;7.45;;;;;;;19.16;74.95;96119.66;5034929;28;20197;-86
2021/09/28 01:51:48;;;;;;;7.80;7.10;;;;;;;19.19;74.95;96114.00;5034615;28;20198;-86
2021/09/28 01:54:15;;;;;;;9.20;6.70;;;;;;;19.20;74.80;96115.59;5034493;28;20206;-85
2021/09/28 01:56:43;;;;;;;8.15;7.35;;;;;;;19.21;74.83;96111.19;5034390;28;20228;-85
2021/09/28 01:59:09;;;;;;;7.78;7.03;;;;;;;19.22;74.67;96125.84;5035221;28;20206;-85
2021/09/28 02:01:37;;;;;;;7.55;6.95;;;;;;;19.20;74.70;96112.19;5034726;28;20210;-86
2021/09/28 02:04:04;;;;;;;7.65;6.95;;;;;;;19.18;75.12;96120.25;5034064;28;20213;-84
2021/09/28 02:06:35;;;;;;;7.75;6.80;;;;;;;19.19;75.06;96114.00;5035140;28;20245;-85
2021/09/28 02:09:04;;;;;;;7.60;7.00;;;;;;;19.19;74.88;96121.03;5035367;28;20233;-85
2021/09/28 02:11:31;;;;;;;7.88;7.22;;;;;;;19.22;74.50;96113.59;5035679;28;20241;-84
2021/09/28 02:13:59;;;;;;;7.68;6.97;;;;;;;19.22;74.24;96120.63;5034874;28;20194;-86
2021/09/28 02:16:25;;;;;;;7.43;6.82;;;;;;;19.19;74.57;96116.63;5034589;28;20230;-85
2021/09/28 02:18:52;;;;;;;7.80;7.15;;;;;;;19.17;74.50;96123.06;5035119;28;20213;-86
2021/09/28 02:21:18;;;;;;;8.30;7.18;;;;;;;19.17;74.49;96113.44;5035004;28;20201;-85
2021/09/28 02:23:45;;;;;;;7.30;6.65;;;;;;;19.15;74.42;96115.44;5035246;28;20206;-84
2021/09/28 02:26:11;;;;;;;7.50;6.90;;;;;;;19.06;74.71;96121.16;5034501;28;20731;-84
2021/09/28 02:28:38;;;;;;;7.18;6.57;;;;;;;18.92;75.36;96118.69;5034185;28;20202;-86
2021/09/28 02:31:06;;;;;;;7.55;6.85;;;;;;;18.93;74.73;96116.88;5034275;28;20216;-86
2021/09/28 02:33:32;;;;;;;7.47;6.78;;;;;;;18.88;74.90;96111.50;5034447;28;20202;-86
2021/09/28 02:35:59;;;;;;;7.03;6.38;;;;;;;18.89;74.71;96113.09;5033978;28;20618;-85
2021/09/28 02:38:25;;;;;;;7.43;6.72;;;;;;;18.90;74.53;96109.47;5047967;28;20267;-84
2021/09/28 02:40:52;;;;;;;7.32;6.68;;;;;;;18.91;74.16;96105.84;5055007;28;20220;-84
2021/09/28 02:43:18;;;;;;;7.55;6.60;;;;;;;18.91;74.15;96111.88;5055988;28;20193;-84
2021/09/28 02:45:47;;;;;;;8.02;6.85;;;;;;;18.88;74.15;96109.69;5059047;28;20197;-85
2021/09/28 02:48:15;;;;;;;6.78;6.20;;;;;;;18.85;74.08;96111.94;5054324;28;20197;-85
2021/09/28 02:50:42;;;;;;;7.13;6.43;;;;;;;18.90;74.09;96119.91;5053705;28;20673;-85
2021/09/28 02:53:08;;;;;;;7.20;6.53;;;;;;;18.85;74.25;96114.56;5067804;28;20197;-86
2021/09/28 02:55:35;;;;;;;7.40;6.72;;;;;;;18.83;74.28;96114.78;5073622;28;20239;-86
2021/09/28 02:58:01;;;;;;;7.13;6.43;;;;;;;18.82;74.04;96122.81;5053973;28;20221;-86
2021/09/28 03:00:28;;;;;;;7.10;6.50;;;;;;;18.78;74.30;96119.03;5053232;28;20704;-86
2021/09/28 03:02:54;;;;;;;7.38;6.60;;;;;;;18.80;74.33;96117.81;5052123;28;20217;-84
2021/09/28 03:05:22;;;;;;;6.68;6.18;;;;;;;18.81;74.55;96126.44;5062414;28;20205;-86
2021/09/28 03:07:48;;;;;;;6.97;6.38;;;;;;;18.80;74.19;96119.63;5058351;28;20223;-85
2021/09/28 03:10:15;;;;;;;6.72;6.20;;;;;;;18.78;74.27;96130.25;5059366;28;20208;-85
2021/09/28 03:12:42;;;;;;;7.25;6.35;;;;;;;18.82;74.14;96122.81;5060304;28;20794;-84
2021/09/28 03:15:09;;;;;;;7.10;6.50;;;;;;;18.83;73.91;96119.19;5052848;28;20221;-85
2021/09/28 03:17:35;;;;;;;7.07;6.47;;;;;;;18.78;74.49;96122.44;5053258;28;20232;-84
2021/09/28 03:20:02;;;;;;;6.85;6.25;;;;;;;18.77;74.61;96122.66;5055682;28;20243;-85
2021/09/28 03:22:30;;;;;;;6.85;6.25;;;;;;;18.78;74.50;96127.66;5053983;28;20231;-85
2021/09/28 03:24:56;;;;;;;8.38;6.32;;;;;;;18.76;74.65;96126.28;5056049;28;20204;-85
2021/09/28 03:27:23;;;;;;;7.30;6.60;;;;;;;18.77;75.07;96126.06;5054610;28;20232;-85
2021/09/28 03:29:49;;;;;;;7.05;6.32;;;;;;;18.79;74.86;96133.66;5057202;28;20229;-85
2021/09/28 03:32:16;;;;;;;6.57;5.97;;;;;;;18.79;74.88;96129.25;5055805;28;20322;-84
2021/09/28 03:34:42;;;;;;;7.38;6.68;;;;;;;18.83;75.06;96132.25;5055735;28;20208;-84
2021/09/28 03:37:09;;;;;;;7.05;6.50;;;;;;;18.79;75.43;96137.09;5053261;28;20240;-84
2021/09/28 03:39:36;;;;;;;8.63;7.00;;;;;;;18.79;75.04;96138.88;5055332;28;20228;-84
2021/09/28 03:42:03;;;;;;;6.85;6.15;;;;;;;18.80;75.09;96143.91;5051535;28;20209;-84
2021/09/28 03:44:30;;;;;;;6.65;6.05;;;;;;;18.76;75.43;96144.53;5057456;28;20205;-83
2021/09/28 03:46:56;;;;;;;7.40;6.65;;;;;;;18.71;75.43;96149.59;5051241;28;20222;-84
2021/09/28 03:49:23;;;;;;;6.55;5.95;;;;;;;18.72;75.38;96156.41;5052205;28;20208;-84
2021/09/28 03:51:49;;;;;;;8.68;6.50;;;;;;;18.69;76.29;96154.22;5050115;28;20198;-84
2021/09/28 03:54:16;;;;;;;7.50;6.80;;;;;;;18.65;76.44;96153.06;5049755;28;20209;-84
2021/09/28 03:56:44;;;;;;;8.02;7.28;;;;;;;18.64;76.63;96162.69;5055790;28;20227;-83
2021/09/28 03:59:10;;;;;;;8.05;7.25;;;;;;;18.58;77.32;96161.69;5070462;28;20227;-85
2021/09/28 04:01:37;;;;;;;7.70;6.85;;;;;;;18.57;77.00;96165.31;5072969;28;20221;-84
2021/09/28 04:04:03;;;;;;;8.13;7.32;;;;;;;18.59;76.91;96176.38;5073741;28;20559;-85
2021/09/28 04:06:29;;;;;;;8.70;7.95;;;;;;;18.57;77.36;96172.34;5056300;28;20233;-85
2021/09/28 04:08:56;;;;;;;8.43;7.68;;;;;;;18.52;77.52;96175.56;5052812;28;20259;-84
2021/09/28 04:11:23;;;;;;;9.27;8.18;;;;;;;18.49;77.99;96178.59;5053214;28;20205;-85
2021/09/28 04:13:50;;;;;;;9.07;8.18;;;;;;;18.50;77.88;96177.59;5055787;28;20211;-84
2021/09/28 04:16:17;;;;;;;9.90;8.90;;;;;;;18.49;77.88;96185.63;5056534;28;20851;-86
2021/09/28 04:18:45;;;;;;;9.90;9.02;;;;;;;18.50;78.44;96185.41;5056676;28;20352;-85
2021/09/28 04:21:12;;;;;;;10.00;9.00;;;;;;;18.53;78.41;96192.81;5065027;28;20197;-85
2021/09/28 04:23:38;;;;;;;10.32;9.38;;;;;;;18.46;78.39;96194.69;5055675;28;20204;-86
2021/09/28 04:26:05;;;;;;;10.65;9.35;;;;;;;18.38;79.46;96197.53;5056120;28;20228;-85
2021/09/28 04:28:32;;;;;;;9.95;9.00;;;;;;;18.40;79.35;96199.94;5055866;28;20206;-84
2021/09/28 04:30:59;;;;;;;10.23;9.07;;;;;;;18.40;79.34;96203.34;5055887;28;20204;-84
2021/09/28 04:33:26;;;;;;;10.48;9.40;;;;;;;18.42;79.57;96203.13;5055751;28;20208;-86
2021/09/28 04:35:52;;;;;;;9.93;8.95;;;;;;;18.33;79.98;96207.78;5054928;28;20217;-84
2021/09/28 04:38:19;;;;;;;10.60;9.50;;;;;;;18.35;80.09;96212.78;5043154;28;20222;-85
2021/09/28 04:40:45;;;;;;;10.13;9.15;;;;;;;18.33;80.36;96213.00;5034085;28;20210;-86
2021/09/28 04:43:12;;;;;;;10.52;9.60;;;;;;;18.24;80.86;96209.88;5035046;28;20209;-85
2021/09/28 04:48:13;;;;;;;10.10;9.20;;;;;;;18.19;80.35;96220.09;5020718;28;20223;-89
2021/09/28 04:50:42;;;;;;;10.35;9.43;;;;;;;18.16;81.87;96210.09;5027783;28;20205;-88
2021/09/28 04:53:09;;;;;;;9.88;8.95;;;;;;;18.19;80.93;96217.50;5031571;28;20209;-89
2021/09/28 04:55:35;;;;;;;15.10;13.60;;;;;;;18.22;80.71;96230.13;5023679;28;20233;-88
2021/09/28 04:58:02;;;;;;;35.58;31.90;;;;;;;18.28;80.58;96229.25;5011315;28;20765;-88
2021/09/28 05:00:29;;;;;;;11.00;9.90;;;;;;;18.27;80.83;96230.31;5011401;28;20215;-88
2021/09/28 05:02:55;;;;;;;9.73;8.77;;;;;;;18.30;80.46;96223.84;5017960;28;20204;-88
2021/09/28 05:05:24;;;;;;;9.45;8.27;;;;;;;18.35;80.31;96224.03;5030940;28;20222;-88
2021/09/28 05:07:50;;;;;;;9.13;8.23;;;;;;;18.29;80.74;96223.03;5031342;28;20205;-88
2021/09/28 05:10:17;;;;;;;9.35;8.40;;;;;;;18.30;81.06;96226.47;5031782;28;20317;-90
2021/09/28 05:12:44;;;;;;;10.10;7.50;;;;;;;18.20;82.73;96219.09;5031342;28;20281;-88
2021/09/28 05:15:11;;;;;;;8.63;7.85;;;;;;;18.26;81.88;96225.28;5031050;28;20218;-89
2021/09/28 05:17:41;;;;;;;8.93;8.05;;;;;;;18.33;81.11;96225.25;5031296;28;20286;-88
2021/09/28 05:20:11;;;;;;;7.75;6.95;;;;;;;18.37;81.20;96231.66;5031245;28;20249;-88
2021/09/28 05:22:38;;;;;;;8.40;7.63;;;;;;;18.28;81.22;96226.66;5031040;28;20206;-89
2021/09/28 05:25:06;;;;;;;8.63;7.75;;;;;;;18.19;82.42;96220.09;5030601;28;20297;-88
2021/09/28 05:27:33;;;;;;;8.20;7.30;;;;;;;18.19;82.23;96221.91;5029444;28;20199;-88
2021/09/28 05:30:02;;;;;;;8.10;7.40;;;;;;;18.18;82.83;96226.31;5031366;28;20197;-88
2021/09/28 05:32:29;;;;;;;8.32;7.53;;;;;;;18.25;82.14;96228.91;5031395;28;20629;-89
2021/09/28 05:34:55;;;;;;;8.68;7.28;;;;;;;18.27;81.79;96232.91;5030858;28;20213;-89
2021/09/28 05:37:22;;;;;;;7.72;6.95;;;;;;;18.27;81.45;96232.91;5030383;28;20233;-89
2021/09/28 05:39:52;;;;;;;7.43;6.13;;;;;;;18.32;80.61;96240.09;5030769;28;20585;-88
2021/09/28 05:42:19;;;;;;;6.82;6.10;;;;;;;18.37;80.36;96240.28;5030952;28;20287;-88
2021/09/28 05:44:46;;;;;;;6.68;5.57;;;;;;;18.37;80.56;96244.69;5030446;28;20669;-89
2021/09/28 05:47:13;;;;;;;7.47;5.68;;;;;;;18.36;80.24;96248.28;5030895;28;20636;-88
2021/09/28 05:49:39;;;;;;;5.85;5.30;;;;;;;18.37;80.47;96260.31;5028586;28;20931;-89
2021/09/28 05:52:08;;;;;;;7.53;5.10;;;;;;;18.33;80.80;96257.34;5030212;28;20193;-88
2021/09/28 05:54:44;;;;;;;8.45;5.28;;;;;;;18.37;80.62;96255.91;5027725;28;20205;-88
2021/09/28 05:57:13;;;;;;;6.25;5.25;;;;;;;18.38;80.32;96256.72;5028225;28;20280;-88
2021/09/28 05:59:41;;;;;;;5.72;4.90;;;;;;;18.37;80.14;96265.53;5029952;28;20198;-88
2021/09/28 06:02:08;;;;;;;4.97;4.57;;;;;;;18.33;79.93;96265.16;5027932;28;20688;-88
2021/09/28 06:04:35;;;;;;;5.85;4.85;;;;;;;18.28;80.27;96264.97;5029583;28;20202;-88
2021/09/28 06:07:01;;;;;;;4.78;4.30;;;;;;;18.32;79.98;96263.56;5030138;28;20222;-88
2021/09/28 06:09:31;;;;;;;6.75;4.80;;;;;;;18.27;79.77;96276.44;5030666;28;20202;-89
2021/09/28 06:12:00;;;;;;;4.38;3.97;;;;;;;18.29;79.58;96269.19;5030370;28;20198;-89
2021/09/28 06:14:28;;;;;;;4.45;4.05;;;;;;;18.33;79.21;96275.59;5030085;28;20229;-87
2021/09/28 06:16:58;;;;;;;4.15;3.85;;;;;;;18.25;79.70;96270.63;5030494;28;20226;-87
2021/09/28 06:19:25;;;;;;;3.88;3.47;;;;;;;18.17;79.13;96284.69;5029230;28;20203;-89
2021/09/28 06:21:52;;;;;;;3.50;3.20;;;;;;;17.98;79.37;96285.53;5028793;28;20205;-87
2021/09/28 06:24:21;;;;;;;3.03;2.65;;;;;;;17.98;79.23;96288.16;5029678;28;20210;-89
2021/09/28 06:26:48;;;;;;;2.67;2.45;;;;;;;17.94;78.85;96290.34;5030140;28;20214;-88
2021/09/28 06:29:15;;;;;;;2.55;2.35;;;;;;;18.01;78.54;96292.16;5030144;28;20202;-88
2021/09/28 06:31:44;;;;;;;2.28;1.83;;;;;;;17.96;76.88;96292.75;5030718;28;20644;-88
2021/09/28 06:34:11;;;;;;;2.33;1.85;;;;;;;17.89;77.89;96286.78;5029591;28;20209;-87
2021/09/28 06:36:39;;;;;;;5.22;1.98;;;;;;;17.97;76.81;96294.38;5028249;28;20285;-88
2021/09/28 06:39:15;;;;;;;1.70;1.60;;;;;;;17.85;77.04;96296.81;5031054;28;20194;-88
2021/09/28 06:41:46;;;;;;;2.00;1.50;;;;;;;17.84;76.19;96299.63;5030499;28;20221;-86
2021/09/28 06:44:13;;;;;;;2.35;1.48;;;;;;;17.78;76.11;96300.44;5032260;28;20210;-87
2021/09/28 06:46:44;;;;;;;1.73;1.58;;;;;;;17.72;76.23;96306.44;5033331;28;20360;-86
2021/09/28 06:49:10;;;;;;;1.25;1.08;;;;;;;17.75;76.04;96308.66;5030414;28;20190;-87
2021/09/28 06:51:41;;;;;;;1.20;1.10;;;;;;;17.76;75.69;96307.63;5029515;28;20201;-88
2021/09/28 06:54:08;;;;;;;3.67;1.58;;;;;;;17.70;75.85;96308.47;5029671;28;20711;-88
2021/09/28 06:56:37;;;;;;;1.20;1.08;;;;;;;17.58;75.94;96319.47;5029989;28;20218;-87
2021/09/28 06:59:08;;;;;;;1.25;1.00;;;;;;;17.55;75.61;96316.44;5029213;28;20267;-87
2021/09/28 07:01:34;;;;;;;1.52;0.90;;;;;;;17.49;75.43;96322.47;5029910;28;20280;-87
2021/09/28 07:04:03;;;;;;;1.10;0.70;;;;;;;17.40;75.21;96332.28;5029946;28;20212;-87
2021/09/28 07:06:29;;;;;;;1.02;0.80;;;;;;;17.44;76.22;96325.69;5029350;28;20229;-88
2021/09/28 07:08:56;;;;;;;0.65;0.65;;;;;;;17.44;76.73;96325.69;5029491;28;20217;-87
2021/09/28 07:11:27;;;;;;;1.50;0.70;;;;;;;17.40;77.21;96323.69;5030139;28;20305;-88
2021/09/28 07:13:56;;;;;;;0.95;0.60;;;;;;;17.43;77.39;96325.88;5029818;28;20201;-88
2021/09/28 07:16:25;;;;;;;0.88;0.75;;;;;;;17.46;77.82;96328.88;5029435;28;20253;-88
2021/09/28 07:18:54;;;;;;;0.80;0.80;;;;;;;17.39;77.58;96332.50;5029418;28;20198;-88
2021/09/28 07:21:24;;;;;;;1.13;0.80;;;;;;;17.37;78.12;96334.50;5029799;28;20209;-88
2021/09/28 07:23:57;;;;;;;0.95;0.77;;;;;;;17.36;78.21;96328.47;5029519;28;20224;-88
2021/09/28 07:26:25;;;;;;;2.35;0.85;;;;;;;17.35;78.67;96339.09;5029624;28;20276;-87
2021/09/28 07:28:52;;;;;;;0.80;0.80;;;;;;;17.30;79.13;96331.91;5028895;28;20202;-88
2021/09/28 07:31:22;;;;;;;1.05;0.80;;;;;;;17.36;79.10;96330.28;5029961;28;20206;-87
2021/09/28 07:33:51;;;;;;;0.65;0.65;;;;;;;17.43;78.92;96334.50;5029690;28;20240;-88
2021/09/28 07:36:26;;;;;;;1.13;0.90;;;;;;;17.46;78.23;96328.09;5029064;28;20222;-88
2021/09/28 07:38:55;;;;;;;1.50;0.90;;;;;;;17.41;78.61;96333.09;5028507;28;20260;-87
2021/09/28 07:41:22;;;;;;;0.80;0.80;;;;;;;17.46;78.40;96331.50;5029421;28;20289;-87
2021/09/28 07:43:56;;;;;;;0.95;0.80;;;;;;;17.47;78.27;96324.50;5029496;28;20642;-88
2021/09/28 07:46:23;;;;;;;1.75;0.90;;;;;;;17.42;76.82;96332.88;5028759;28;20709;-88
2021/09/28 07:48:49;;;;;;;1.05;1.02;;;;;;;17.38;78.58;96336.09;5031973;28;20221;-87
2021/09/28 07:51:16;;;;;;;1.00;0.90;;;;;;;17.40;78.68;96339.28;5033119;28;20201;-88
2021/09/28 07:53:49;;;;;;;0.80;0.80;;;;;;;17.36;78.00;96332.88;5032868;28;20198;-88
2021/09/28 07:56:17;;;;;;;1.63;0.80;;;;;;;17.45;77.69;96334.28;5032408;28;20214;-88
2021/09/28 07:58:44;;;;;;;1.52;0.70;;;;;;;17.44;77.72;96345.72;5032344;28;20204;-87
2021/09/28 08:01:15;;;;;;;1.05;0.93;;;;;;;17.49;77.23;96343.31;5033352;28;20221;-88
2021/09/28 08:03:44;;;;;;;1.27;1.10;;;;;;;17.47;76.75;96346.13;5033128;28;20210;-89
2021/09/28 08:06:11;;;;;;;1.38;0.90;;;;;;;17.45;75.94;96347.31;5032529;28;20276;-87
2021/09/28 08:08:37;;;;;;;2.05;1.20;;;;;;;17.45;75.65;96340.31;5032782;28;20202;-88
2021/09/28 08:11:07;;;;;;;0.90;0.90;;;;;;;17.36;75.25;96344.09;5033015;28;20197;-88
2021/09/28 08:13:36;;;;;;;1.63;1.00;;;;;;;17.39;74.48;96348.91;5033018;28;20292;-87
2021/09/28 08:16:05;;;;;;;1.02;0.93;;;;;;;17.36;74.17;96349.31;5032853;28;20221;-88
2021/09/28 08:18:32;;;;;;;1.23;1.00;;;;;;;17.39;74.61;96341.09;5032352;28;20325;-87
2021/09/28 08:20:58;;;;;;;0.90;0.90;;;;;;;17.40;75.18;96345.31;5033047;28;20190;-87
2021/09/28 08:23:25;;;;;;;1.88;1.00;;;;;;;17.32;75.94;96344.72;5032456;28;20194;-88
2021/09/28 08:29:08;;;;;;;0.90;0.90;;;;;;;17.35;75.71;96336.47;5031997;28;20305;-87
2021/09/28 08:29:09;;;;;;;1.45;1.17;;;;;;;17.31;74.55;96343.91;5032323;28;20195;-87
2021/09/28 08:31:39;;;;;;;2.05;0.93;;;;;;;17.44;74.32;96341.31;5032357;28;20550;-89
2021/09/28 08:34:07;;;;;;;2.15;1.00;;;;;;;17.50;73.20;96344.91;5031181;28;20234;-87
2021/09/28 08:36:37;;;;;;;1.00;1.00;;;;;;;17.49;73.09;96344.13;5033014;28;20589;-87
2021/09/28 08:39:11;;;;;;;1.38;1.08;;;;;;;17.59;72.81;96339.28;5051695;28;20209;-88
2021/09/28 08:41:43;;;;;;;1.10;1.00;;;;;;;17.64;71.88;96340.50;5052173;28;20194;-88
2021/09/28 08:44:11;;;;;;;1.38;1.05;;;;;;;17.65;71.06;96334.31;5051693;28;20251;-87
2021/09/28 08:46:40;;;;;;;1.00;1.00;;;;;;;17.71;71.22;96341.31;5051584;28;20228;-87
2021/09/28 08:49:08;;;;;;;1.10;1.00;;;;;;;17.73;71.09;96334.91;5048853;28;20197;-87
2021/09/28 08:51:40;;;;;;;1.42;1.05;;;;;;;17.85;71.03;96329.88;5030010;28;20216;-89
2021/09/28 08:54:14;;;;;;;1.00;1.00;;;;;;;17.85;71.12;96335.09;5031964;28;20256;-87
2021/09/28 08:56:45;;;;;;;1.35;1.23;;;;;;;17.89;71.40;96333.69;5032508;28;20230;-87
2021/09/28 08:59:15;;;;;;;1.30;1.20;;;;;;;17.87;71.14;96333.88;5035461;28;20566;-87
2021/09/28 09:01:54;;;;;;;1.65;1.55;;;;;;;17.83;71.65;96330.09;5031552;28;20236;-86
2021/09/28 09:04:23;;;;;;;1.63;1.52;;;;;;;17.97;71.71;96333.44;5032079;28;20213;-87
2021/09/28 09:06:54;;;;;;;1.30;1.20;;;;;;;17.94;69.16;96333.84;5031737;28;20222;-87
2021/09/28 09:09:22;;;;;;;1.20;1.10;;;;;;;17.94;70.51;96329.44;5031837;28;20593;-87
2021/09/28 09:11:51;;;;;;;1.23;1.13;;;;;;;17.95;70.64;96328.44;5031577;28;20205;-88
2021/09/28 09:14:21;;;;;;;1.10;1.00;;;;;;;18.06;69.33;96331.44;5031651;28;20202;-87
2021/09/28 09:16:50;;;;;;;0.90;0.90;;;;;;;18.08;69.37;96324.22;5031452;28;20229;-87
2021/09/28 09:19:19;;;;;;;2.08;1.23;;;;;;;18.07;69.26;96325.22;5031667;28;20194;-87
2021/09/28 09:21:49;;;;;;;2.95;1.20;;;;;;;17.94;70.86;96323.44;5031174;28;20203;-89
2021/09/28 09:24:44;;;;;;;1.30;1.20;;;;;;;17.72;71.52;96330.69;5036359;28;20201;-88
2021/09/28 09:27:19;;;;;;;1.30;1.20;;;;;;;17.59;72.71;96317.66;5031330;28;20228;-87
2021/09/28 09:30:10;;;;;;;1.70;1.50;;;;;;;17.71;71.23;96310.84;5031723;28;20218;-89
2021/09/28 09:32:51;;;;;;;1.40;1.30;;;;;;;17.85;70.61;96303.84;5030835;28;20240;-89
2021/09/28 09:35:25;;;;;;;1.42;1.33;;;;;;;17.85;71.29;96316.84;5031509;28;20225;-89
2021/09/28 09:37:55;;;;;;;2.65;1.40;;;;;;;17.80;71.17;96311.44;5030526;28;20693;-89
2021/09/28 09:40:45;;;;;;;2.08;1.30;;;;;;;17.87;71.84;96309.63;5031325;28;20666;-88
2021/09/28 09:43:15;;;;;;;2.50;1.38;;;;;;;17.93;71.25;96309.59;5031401;28;20230;-88
2021/09/28 09:45:51;;;;;;;1.60;1.50;;;;;;;17.79;71.08;96302.84;5030276;28;20222;-89
2021/09/28 09:48:27;;;;;;;1.60;1.50;;;;;;;17.83;70.78;96305.84;5031135;28;20284;-88
2021/09/28 09:51:04;;;;;;;1.88;1.40;;;;;;;17.81;71.27;96306.03;5013961;28;20288;-88
2021/09/28 09:53:33;;;;;;;1.67;1.58;;;;;;;17.79;72.29;96300.22;5011499;28;20241;-88
2021/09/28 09:56:02;;;;;;;1.67;1.58;;;;;;;17.74;72.67;96294.81;5029932;28;20312;-89
2021/09/28 09:58:31;;;;;;;2.03;1.50;;;;;;;17.78;72.33;96296.00;5030728;28;20777;-89
2021/09/28 10:01:06;;;;;;;1.52;1.42;;;;;;;17.86;71.61;96293.22;5030969;28;20233;-89
2021/09/28 10:04:03;;;;;;;1.70;1.60;;;;;;;17.92;70.76;96296.78;5030628;28;20224;-87
2021/09/28 10:06:33;;;;;;;2.03;1.80;;;;;;;17.80;71.27;96295.81;5030081;28;20588;-88
2021/09/28 10:09:15;;;;;;;2.25;1.50;;;;;;;17.79;72.13;96282.00;5010909;28;20213;-88
2021/09/28 10:12:00;;;;;;;1.65;1.52;;;;;;;17.89;71.52;96290.19;5017633;28;20291;-88
2021/09/28 10:14:41;;;;;;;1.70;1.38;;;;;;;17.85;71.85;96291.59;5011292;28;20254;-89
2021/09/28 10:17:47;;;;;;;1.83;1.50;;;;;;;17.97;71.79;96290.97;5011180;28;20226;-89
2021/09/28 10:23:26;;;;;;;1.98;1.77;;;;;;;18.01;69.68;96292.97;5011528;28;20203;-89
2021/09/28 10:26:28;;;;;;;4.22;1.60;;;;;;;18.01;69.38;96290.34;5010546;28;20226;-89
2021/09/28 10:29:28;;;;;;;1.55;1.45;;;;;;;17.89;70.45;96292.00;5010873;28;20198;-89
2021/09/28 10:32:04;;;;;;;1.58;1.48;;;;;;;17.76;70.62;96289.41;5010465;28;20228;-89
2021/09/28 10:37:51;;;;;;;1.23;1.17;;;;;;;17.97;70.45;96281.34;5051830;23;20685;-88
2021/09/28 10:41:02;;;;;;;1.70;1.60;;;;;;;17.90;71.01;96273.53;5050011;28;20201;-89
2021/09/28 10:43:37;;;;;;;4.75;3.28;;;;;;;17.89;71.32;96276.38;5039637;28;20720;-88
2021/09/28 10:46:37;;;;;;;4.03;3.67;;;;;;;17.82;72.29;96268.56;5039268;28;20264;-88
2021/09/28 10:49:25;;;;;;;4.10;3.65;;;;;;;17.77;72.78;96270.97;5030385;28;20206;-88
2021/09/28 10:51:53;;;;;;;5.10;4.60;;;;;;;17.73;71.69;96261.16;5046226;22;20230;-87
2021/09/28 10:54:21;;;;;;;4.80;4.00;;;;;;;17.70;72.91;96264.19;5059165;28;20209;-86
2021/09/28 10:56:51;;;;;;;4.35;3.92;;;;;;;17.74;73.09;96265.38;5060573;28;20201;-86
2021/09/28 10:59:17;;;;;;;4.50;3.92;;;;;;;17.86;72.38;96258.53;5060736;28;20312;-86
2021/09/28 11:02:07;;;;;;;4.18;3.78;;;;;;;17.88;72.54;96256.53;5059767;28;20217;-85
2021/09/28 11:04:33;;;;;;;3.72;3.42;;;;;;;17.91;72.50;96248.28;5060072;28;20207;-85
2021/09/28 11:07:10;;;;;;;3.13;2.92;;;;;;;17.99;71.63;96253.28;5059853;28;20217;-86
2021/09/28 11:09:49;;;;;;;2.97;2.75;;;;;;;18.05;71.45;96244.63;5057509;28;20205;-85
2021/09/28 11:12:17;;;;;;;2.50;2.30;;;;;;;18.03;71.10;96243.25;5057577;28;20288;-86
2021/09/28 11:14:44;;;;;;;2.47;2.28;;;;;;;18.07;71.72;96237.41;5057831;28;20288;-87
2021/09/28 11:17:17;;;;;;;2.85;2.40;;;;;;;18.06;71.33;96237.63;5059435;28;20209;-86
2021/09/28 11:19:44;;;;;;;2.13;2.03;;;;;;;18.10;70.72;96236.19;5059366;28;20545;-85
2021/09/28 11:22:19;;;;;;;2.30;2.10;;;;;;;18.11;70.67;96225.53;5059276;28;20233;-85
2021/09/28 11:24:47;;;;;;;2.05;1.95;;;;;;;18.24;69.90;96228.09;5062680;28;20205;-85
2021/09/28 11:27:13;;;;;;;2.42;1.70;;;;;;;18.30;69.94;96232.47;5063097;28;20221;-85
2021/09/28 11:29:57;;;;;;;1.95;1.77;;;;;;;18.35;68.69;96231.84;5065596;28;20206;-87
2021/09/28 11:32:23;;;;;;;2.50;1.67;;;;;;;18.47;68.85;96230.16;5064020;28;20234;-86
2021/09/28 11:34:50;;;;;;;2.20;1.92;;;;;;;18.59;68.48;96227.72;5066295;28;20202;-85
2021/09/28 11:37:16;;;;;;;2.25;1.67;;;;;;;18.52;69.05;96217.31;5065722;28;20228;-86
2021/09/28 11:39:45;;;;;;;1.65;1.55;;;;;;;18.41;68.95;96211.97;5065168;28;20228;-86
2021/09/28 11:42:14;;;;;;;2.20;2.00;;;;;;;18.43;68.89;96215.16;5065267;28;20224;-85
2021/09/28 11:44:48;;;;;;;2.60;1.90;;;;;;;18.29;68.90;96217.03;5063880;28;20201;-86
2021/09/28 11:47:20;;;;;;;2.17;1.98;;;;;;;18.36;67.88;96217.00;5064422;28;20205;-85
2021/09/28 11:50:00;;;;;;;2.63;1.90;;;;;;;18.32;67.32;96211.41;5063899;28;20198;-86
2021/09/28 11:52:26;;;;;;;2.40;2.15;;;;;;;18.30;67.17;96209.00;5063622;28;20229;-86
2021/09/28 11:54:53;;;;;;;1.80;1.70;;;;;;;18.26;68.04;96200.03;5064259;28;20201;-85